createdAt,value
2019-04-20T00:00:57.814Z,62.29
2019-04-20T00:03:30.979Z,62.29
2019-04-20T00:05:55.468Z,62.46
2019-04-20T00:08:27.834Z,62.46
2019-04-20T00:11:02.665Z,62.62
2019-04-20T00:13:38.380Z,61.90
2019-04-20T00:15:55.809Z,62.62
2019-04-20T00:18:26.861Z,62.71
2019-04-20T00:21:00.264Z,62.69
2019-04-20T00:23:33.434Z,62.66
2019-04-20T00:26:14.824Z,62.90
2019-04-20T00:28:57.173Z,62.29
2019-04-20T00:31:25.671Z,62.65
2019-04-20T00:33:48.209Z,58.62
2019-04-20T00:36:07.402Z,62.35
2019-04-20T00:38:45.288Z,62.54
2019-04-20T00:41:10.122Z,62.82
2019-04-20T00:43:39.142Z,62.56
2019-04-20T00:46:14.839Z,62.74
2019-04-20T00:48:49.756Z,62.51
2019-04-20T00:51:26.248Z,62.33
2019-04-20T00:53:42.552Z,62.29
2019-04-20T00:56:07.794Z,62.21
2019-04-20T00:58:50.775Z,62.54
2019-04-20T01:01:27.466Z,62.43
2019-04-20T01:03:52.692Z,62.77
2019-04-20T01:06:31.741Z,62.63
2019-04-20T01:08:46.394Z,58.84
2019-04-20T01:11:17.600Z,62.69
2019-04-20T01:13:51.995Z,63.11
2019-04-20T01:16:25.283Z,63.14
2019-04-20T01:18:47.242Z,62.61
2019-04-20T01:21:20.317Z,62.98
2019-04-20T01:23:51.240Z,62.98
2019-04-20T01:26:19.158Z,63.14
2019-04-20T01:28:58.247Z,62.98
2019-04-20T01:31:27.286Z,63.32
2019-04-20T01:33:55.098Z,63.53
2019-04-20T01:36:36.867Z,63.50
2019-04-20T01:38:58.972Z,63.37
2019-04-20T01:41:18.263Z,63.78
2019-04-20T01:43:48.003Z,63.59
2019-04-20T01:46:20.681Z,64.08
2019-04-20T01:48:48.168Z,64.20
2019-04-20T01:51:22.810Z,63.73
2019-04-20T01:54:06.676Z,63.98
2019-04-20T01:56:37.311Z,63.97
2019-04-20T01:59:10.727Z,64.36
2019-04-20T02:01:42.487Z,63.83
2019-04-20T02:04:25.465Z,64.12
2019-04-20T02:06:53.459Z,64.29
2019-04-20T02:09:22.214Z,65.09
2019-04-20T02:11:50.858Z,61.33
2019-04-20T02:14:24.270Z,64.94
2019-04-20T02:16:53.051Z,65.08
2019-04-20T02:19:30.688Z,65.39
2019-04-20T02:22:03.816Z,65.80
2019-04-20T02:24:19.511Z,65.73
2019-04-20T02:26:50.061Z,65.67
2019-04-20T02:29:39.890Z,65.00
2019-04-20T02:32:23.810Z,65.61
2019-04-20T02:34:56.785Z,65.81
2019-04-20T02:37:55.121Z,66.18
2019-04-20T02:40:12.751Z,66.44
2019-04-20T02:42:44.820Z,66.29
2019-04-20T02:45:10.442Z,66.46
2019-04-20T02:52:38.053Z,66.62
2019-04-20T02:55:10.863Z,66.91
2019-04-20T02:57:43.728Z,66.82
2019-04-20T03:00:05.448Z,66.90
2019-04-20T03:02:18.137Z,66.65
2019-04-20T03:04:42.514Z,66.84
2019-04-20T03:07:15.362Z,66.70
2019-04-20T03:09:50.522Z,67.08
2019-04-20T03:12:30.349Z,67.03
2019-04-20T03:14:47.809Z,63.25
2019-04-20T03:17:27.262Z,66.59
2019-04-20T03:19:47.794Z,66.88
2019-04-20T03:22:35.021Z,67.18
2019-04-20T03:24:59.736Z,67.02
2019-04-20T03:27:25.116Z,67.37
2019-04-20T03:30:07.150Z,67.45
2019-04-20T03:35:17.433Z,67.76
2019-04-20T03:37:36.430Z,67.34
2019-04-20T03:39:58.032Z,67.15
2019-04-20T03:42:16.013Z,67.40
2019-04-20T03:44:55.028Z,67.45
2019-04-20T03:47:29.351Z,67.67
2019-04-20T03:50:06.062Z,67.33
2019-04-20T03:52:40.368Z,67.64
2019-04-20T03:55:26.234Z,67.63
2019-04-20T03:58:04.494Z,67.58
2019-04-20T04:00:43.261Z,67.53
2019-04-20T04:03:20.260Z,67.81
2019-04-20T04:05:48.006Z,67.81
2019-04-20T04:08:14.943Z,67.85
2019-04-20T04:10:54.763Z,68.14
2019-04-20T04:13:16.886Z,68.11
2019-04-20T04:15:51.913Z,67.74
2019-04-20T04:18:26.106Z,68.53
2019-04-20T04:20:54.109Z,68.22
2019-04-20T04:23:37.847Z,68.52
2019-04-20T04:26:15.013Z,68.44
2019-04-20T04:28:37.412Z,68.31
2019-04-20T04:31:09.469Z,68.42
2019-04-20T04:33:51.968Z,68.44
2019-04-20T04:36:08.915Z,68.25
2019-04-20T04:38:44.633Z,68.36
2019-04-20T04:41:16.403Z,68.16
2019-04-20T04:43:39.763Z,67.88
2019-04-20T04:45:51.329Z,68.02
2019-04-20T04:48:27.653Z,68.64
2019-04-20T04:50:56.461Z,68.50
2019-04-20T04:53:30.298Z,68.20
2019-04-20T04:55:58.533Z,68.28
2019-04-20T04:58:21.601Z,68.26
2019-04-20T05:00:51.503Z,68.02
2019-04-20T05:03:38.789Z,67.50
2019-04-20T05:06:16.728Z,67.30
2019-04-20T05:08:31.680Z,67.38
2019-04-20T05:10:54.213Z,67.20
2019-04-20T05:13:27.300Z,67.12
2019-04-20T05:16:07.581Z,66.35
2019-04-20T05:18:44.843Z,66.36
2019-04-20T05:21:15.301Z,66.07
2019-04-20T05:23:37.874Z,65.79
2019-04-20T05:26:25.403Z,64.52
2019-04-20T05:28:46.105Z,64.52
2019-04-20T05:31:09.581Z,64.20
2019-04-20T05:34:02.356Z,64.37
2019-04-20T05:36:23.339Z,63.93
2019-04-20T05:39:02.538Z,63.28
2019-04-20T05:41:21.879Z,63.18
2019-04-20T05:43:56.543Z,61.28
2019-04-20T05:46:42.449Z,62.29
2019-04-20T05:49:02.792Z,61.77
2019-04-20T05:51:37.982Z,61.11
2019-04-20T05:54:05.700Z,60.38
2019-04-20T05:56:37.305Z,59.84
2019-04-20T05:58:59.862Z,60.49
2019-04-20T06:01:31.817Z,58.90
2019-04-20T06:03:57.890Z,58.94
2019-04-20T06:06:34.563Z,58.76
2019-04-20T06:09:06.844Z,58.49
2019-04-20T06:11:37.023Z,57.88
2019-04-20T06:13:54.310Z,57.51
2019-04-20T06:16:41.003Z,56.33
2019-04-20T06:19:18.845Z,56.37
2019-04-20T06:21:38.025Z,55.60
2019-04-20T06:24:26.437Z,56.25
2019-04-20T06:27:00.905Z,55.82
2019-04-20T06:29:22.532Z,55.39
2019-04-20T06:31:59.238Z,54.51
2019-04-20T06:37:02.106Z,52.97
2019-04-20T06:39:40.377Z,53.33
2019-04-20T06:44:34.356Z,52.47
2019-04-20T06:47:08.905Z,52.10
2019-04-20T06:49:36.660Z,51.39
2019-04-20T06:52:24.370Z,51.17
2019-04-20T06:54:56.508Z,51.48
2019-04-20T06:57:24.032Z,51.79
2019-04-20T07:00:05.801Z,50.60
2019-04-20T07:02:29.643Z,49.89
2019-04-20T07:04:57.529Z,49.99
2019-04-20T07:07:43.208Z,49.57
2019-04-20T07:12:27.354Z,48.22
2019-04-20T07:14:47.003Z,47.90
2019-04-20T07:17:43.814Z,47.56
2019-04-20T07:20:02.243Z,46.90
2019-04-20T07:22:46.220Z,46.18
2019-04-20T07:25:06.376Z,46.76
2019-04-20T07:27:41.474Z,46.73
2019-04-20T07:30:12.118Z,46.12
2019-04-20T07:32:49.832Z,45.49
2019-04-20T07:35:09.868Z,45.27
2019-04-20T07:40:15.176Z,45.14
2019-04-20T07:42:49.498Z,43.75
2019-04-20T07:45:21.669Z,45.64
2019-04-20T07:47:46.332Z,44.34
2019-04-20T07:50:08.693Z,43.99
2019-04-20T07:52:38.460Z,45.51
2019-04-20T07:57:41.954Z,42.20
2019-04-20T08:00:17.515Z,41.97
2019-04-20T08:03:12.182Z,43.59
2019-04-20T08:05:36.375Z,41.09
2019-04-20T08:08:14.892Z,40.04
2019-04-20T08:10:39.439Z,40.44
2019-04-20T08:13:26.934Z,38.61
2019-04-20T08:15:50.234Z,39.04
2019-04-20T08:18:21.342Z,38.20
2019-04-20T08:20:46.442Z,38.25
2019-04-20T08:23:20.290Z,37.96
2019-04-20T08:25:39.600Z,38.20
2019-04-20T08:28:06.398Z,37.65
2019-04-20T08:31:04.995Z,37.80
2019-04-20T08:33:42.651Z,40.20
2019-04-20T08:36:16.864Z,36.23
2019-04-20T08:39:08.358Z,34.52
2019-04-20T08:41:09.694Z,34.52
2019-04-20T08:43:53.871Z,34.21
2019-04-20T08:46:18.191Z,34.03
2019-04-20T08:48:46.805Z,33.40
2019-04-20T08:51:14.624Z,34.33
2019-04-20T08:53:46.552Z,32.67
2019-04-20T08:56:11.934Z,32.85
2019-04-20T08:58:27.271Z,33.73
2019-04-20T09:01:01.256Z,33.28
2019-04-20T09:03:31.675Z,31.81
2019-04-20T09:06:03.529Z,34.13
2019-04-20T09:08:36.709Z,31.23
2019-04-20T09:11:16.820Z,30.83
2019-04-20T09:13:34.299Z,33.16
2019-04-20T09:15:57.785Z,28.69
2019-04-20T09:18:49.400Z,27.38
2019-04-20T09:21:21.519Z,27.19
2019-04-20T09:24:00.170Z,26.98
2019-04-20T09:26:30.930Z,25.58
2019-04-20T09:28:54.383Z,25.41
2019-04-20T09:31:36.905Z,25.32
2019-04-20T09:34:07.452Z,24.09
2019-04-20T09:36:42.346Z,24.78
2019-04-20T09:39:25.664Z,22.05
2019-04-20T09:42:00.764Z,23.14
2019-04-20T09:44:24.576Z,22.56
2019-04-20T09:46:56.763Z,22.29
2019-04-20T09:49:35.303Z,21.50
2019-04-20T09:52:09.980Z,21.82
2019-04-20T09:54:43.719Z,21.21
2019-04-20T09:57:13.276Z,21.35
2019-04-20T09:59:48.218Z,21.51
2019-04-20T10:02:01.929Z,19.97
2019-04-20T10:04:24.056Z,20.88
2019-04-20T10:06:52.785Z,20.34
2019-04-20T10:09:27.917Z,20.44
2019-04-20T10:11:51.479Z,20.34
2019-04-20T10:14:20.110Z,20.87
2019-04-20T10:16:49.748Z,19.92
2019-04-20T10:19:24.863Z,19.63
2019-04-20T10:21:48.713Z,21.32
2019-04-20T10:24:17.179Z,20.71
2019-04-20T10:26:45.602Z,20.25
2019-04-20T10:29:15.430Z,20.99
2019-04-20T10:31:51.424Z,20.67
2019-04-20T10:34:15.680Z,21.00
2019-04-20T10:36:45.957Z,20.04
2019-04-20T10:39:14.192Z,20.44
2019-04-20T10:41:49.132Z,19.92
2019-04-20T10:44:12.858Z,19.72
2019-04-20T10:46:41.336Z,20.72
2019-04-20T10:49:11.088Z,20.04
2019-04-20T10:51:40.229Z,20.45
2019-04-20T10:54:08.840Z,18.86
2019-04-20T10:56:37.401Z,19.29
2019-04-20T10:59:05.882Z,19.14
2019-04-20T11:01:35.739Z,20.65
2019-04-20T11:04:04.866Z,19.04
2019-04-20T11:06:34.553Z,18.76
2019-04-20T11:09:04.695Z,19.05
2019-04-20T11:11:34.050Z,19.26
2019-04-20T11:14:08.276Z,18.35
2019-04-20T11:16:33.946Z,19.20
2019-04-20T11:19:03.253Z,20.01
2019-04-20T11:21:32.355Z,19.95
2019-04-20T11:24:00.934Z,19.22
2019-04-20T11:26:29.347Z,19.51
2019-04-20T11:28:58.056Z,19.32
2019-04-20T11:31:35.708Z,19.50
2019-04-20T11:33:56.318Z,17.83
2019-04-20T11:36:25.311Z,19.13
2019-04-20T11:38:54.407Z,19.25
2019-04-20T11:41:27.171Z,19.72
2019-04-20T11:43:53.847Z,20.36
2019-04-20T11:46:22.859Z,20.30
2019-04-20T11:48:51.867Z,18.75
2019-04-20T11:51:21.520Z,18.13
2019-04-20T11:53:50.224Z,19.38
2019-04-20T11:56:23.923Z,18.12
2019-04-20T11:58:49.162Z,17.89
2019-04-20T12:01:44.096Z,18.91
2019-04-20T12:04:18.735Z,18.59
2019-04-20T12:06:37.433Z,18.66
2019-04-20T12:09:10.679Z,17.77
2019-04-20T12:11:54.965Z,18.31
2019-04-20T12:14:10.410Z,17.57
2019-04-20T12:16:39.629Z,17.14
2019-04-20T12:19:08.571Z,18.01
2019-04-20T12:21:37.242Z,17.18
2019-04-20T12:24:06.774Z,16.98
2019-04-20T12:26:36.510Z,17.20
2019-04-20T12:29:05.706Z,17.68
2019-04-20T12:31:35.558Z,16.82
2019-04-20T12:34:04.523Z,16.92
2019-04-20T12:36:33.246Z,16.32
2019-04-20T12:39:03.314Z,16.44
2019-04-20T12:41:39.503Z,16.06
2019-04-20T12:44:03.753Z,16.03
2019-04-20T12:46:32.297Z,16.23
2019-04-20T12:49:01.849Z,16.51
2019-04-20T12:51:33.488Z,16.18
2019-04-20T12:54:00.575Z,15.75
2019-04-20T12:56:29.028Z,17.19
2019-04-20T12:58:57.832Z,15.82
2019-04-20T13:01:26.295Z,16.29
2019-04-20T13:03:55.343Z,17.38
2019-04-20T13:06:24.266Z,16.64
2019-04-20T13:08:55.931Z,17.12
2019-04-20T13:11:24.832Z,16.65
2019-04-20T13:14:22.095Z,16.24
2019-04-20T13:16:52.200Z,16.48
2019-04-20T13:19:21.408Z,16.22
2019-04-20T13:21:49.961Z,17.18
2019-04-20T13:24:18.830Z,17.21
2019-04-20T13:26:47.332Z,15.56
2019-04-20T13:29:17.036Z,17.07
2019-04-20T13:31:48.216Z,15.81
2019-04-20T13:34:17.225Z,16.26
2019-04-20T13:36:46.299Z,15.90
2019-04-20T13:39:16.437Z,15.75
2019-04-20T13:41:56.130Z,15.72
2019-04-20T13:44:15.686Z,16.15
2019-04-20T13:46:45.059Z,16.44
2019-04-20T13:49:13.465Z,15.30
2019-04-20T13:51:41.887Z,15.31
2019-04-20T13:54:15.107Z,15.75
2019-04-20T13:56:41.747Z,16.27
2019-04-20T13:59:27.879Z,16.34
2019-04-20T14:02:13.752Z,16.75
2019-04-20T14:04:46.223Z,15.72
2019-04-20T14:07:15.859Z,15.29
2019-04-20T14:09:45.596Z,15.64
2019-04-20T14:12:23.234Z,17.04
2019-04-20T14:14:43.727Z,15.97
2019-04-20T14:17:12.990Z,16.59
2019-04-20T14:19:41.492Z,15.27
2019-04-20T14:22:10.349Z,15.81
2019-04-20T14:24:39.049Z,17.26
2019-04-20T14:27:08.863Z,16.35
2019-04-20T14:29:37.324Z,16.32
2019-04-20T14:32:07.247Z,15.89
2019-04-20T14:34:36.859Z,16.72
2019-04-20T14:37:06.829Z,16.58
2019-04-20T14:39:36.455Z,17.16
2019-04-20T14:42:04.887Z,16.56
2019-04-20T14:44:34.011Z,16.34
2019-04-20T14:47:03.612Z,16.85
2019-04-20T14:49:32.666Z,16.27
2019-04-20T14:52:02.833Z,16.20
2019-04-20T14:54:31.895Z,14.25
2019-04-20T14:57:01.385Z,14.67
2019-04-20T14:59:31.762Z,15.29
2019-04-20T15:02:08.569Z,14.80
2019-04-20T15:04:37.273Z,15.41
2019-04-20T15:07:06.656Z,13.74
2019-04-20T15:09:38.730Z,15.06
2019-04-20T15:12:06.771Z,15.35
2019-04-20T15:14:38.568Z,15.02
2019-04-20T15:17:09.162Z,14.67
2019-04-20T15:19:39.142Z,14.36
2019-04-20T15:22:25.413Z,15.52
2019-04-20T15:24:55.623Z,14.05
2019-04-20T15:27:24.608Z,13.85
2019-04-20T15:29:54.021Z,14.39
2019-04-20T15:32:23.030Z,13.71
2019-04-20T15:34:51.525Z,12.95
2019-04-20T15:37:20.303Z,13.84
2019-04-20T15:39:48.868Z,13.58
2019-04-20T15:42:19.196Z,13.68
2019-04-20T15:44:49.065Z,14.29
2019-04-20T15:47:17.999Z,14.02
2019-04-20T15:49:46.489Z,14.45
2019-04-20T15:52:22.363Z,13.92
2019-04-20T15:54:45.543Z,13.60
2019-04-20T15:57:18.370Z,14.66
2019-04-20T15:59:44.490Z,13.55
2019-04-20T16:02:29.823Z,14.29
2019-04-20T16:05:00.591Z,13.70
2019-04-20T16:07:32.914Z,13.67
2019-04-20T16:09:59.320Z,13.62
2019-04-20T16:12:29.040Z,14.84
2019-04-20T16:14:57.729Z,15.38
2019-04-20T16:17:33.718Z,15.61
2019-04-20T16:20:02.926Z,15.01
2019-04-20T16:22:26.671Z,14.99
2019-04-20T16:24:56.795Z,15.48
2019-04-20T16:27:27.663Z,14.92
2019-04-20T16:29:57.675Z,15.26
2019-04-20T16:32:26.744Z,15.41
2019-04-20T16:34:56.138Z,15.23
2019-04-20T16:37:24.630Z,14.37
2019-04-20T16:39:54.420Z,14.70
2019-04-20T16:42:24.360Z,15.18
2019-04-20T16:44:53.560Z,15.19
2019-04-20T16:49:50.962Z,15.24
2019-04-20T16:52:19.355Z,15.22
2019-04-20T16:54:48.003Z,16.34
2019-04-20T16:57:17.264Z,16.39
2019-04-20T16:59:50.895Z,15.90
2019-04-20T17:02:17.761Z,15.80
2019-04-20T17:04:45.400Z,16.59
2019-04-20T17:07:16.545Z,16.82
2019-04-20T17:09:47.439Z,16.60
2019-04-20T17:12:17.594Z,17.22
2019-04-20T17:14:47.536Z,17.24
2019-04-20T17:17:16.053Z,17.25
2019-04-20T17:19:45.979Z,18.04
2019-04-20T17:22:14.555Z,17.76
2019-04-20T17:24:43.198Z,18.43
2019-04-20T17:27:30.733Z,18.15
2019-04-20T17:30:05.114Z,19.42
2019-04-20T17:32:35.368Z,19.54
2019-04-20T17:35:17.828Z,19.85
2019-04-20T17:37:39.975Z,19.74
2019-04-20T17:40:27.046Z,20.12
2019-04-20T17:42:49.688Z,19.94
2019-04-20T17:45:12.597Z,19.89
2019-04-20T17:47:52.888Z,20.17
2019-04-20T17:50:27.437Z,20.22
2019-04-20T17:52:55.176Z,21.66
2019-04-20T17:55:32.301Z,21.55
2019-04-20T17:58:01.717Z,22.37
2019-04-20T18:00:38.401Z,23.11
2019-04-20T18:03:24.494Z,25.57
2019-04-20T18:06:03.331Z,24.75
2019-04-20T18:08:30.013Z,25.19
2019-04-20T18:10:53.259Z,25.19
2019-04-20T18:13:17.797Z,25.73
2019-04-20T18:15:57.433Z,26.27
2019-04-20T18:18:41.660Z,27.08
2019-04-20T18:20:56.852Z,26.92
2019-04-20T18:23:33.513Z,28.61
2019-04-20T18:26:18.499Z,28.51
2019-04-20T18:28:54.820Z,28.39
2019-04-20T18:31:03.450Z,28.72
2019-04-20T18:33:33.531Z,29.18
2019-04-20T18:36:00.505Z,29.13
2019-04-20T18:38:30.579Z,30.09
2019-04-20T18:41:04.603Z,29.99
2019-04-20T18:43:31.353Z,30.05
2019-04-20T18:46:17.162Z,30.15
2019-04-20T18:48:48.360Z,30.85
2019-04-20T18:51:01.782Z,30.73
2019-04-20T18:53:38.792Z,30.73
2019-04-20T18:56:04.213Z,30.97
2019-04-20T18:58:31.345Z,30.99
2019-04-20T19:01:01.140Z,29.00
2019-04-20T19:03:35.691Z,31.68
2019-04-20T19:06:00.520Z,31.83
2019-04-20T19:08:37.798Z,32.13
2019-04-20T19:11:06.487Z,32.56
2019-04-20T19:13:47.337Z,32.62
2019-04-20T19:16:46.655Z,33.15
2019-04-20T19:19:14.029Z,32.39
2019-04-20T19:21:33.467Z,32.79
2019-04-20T19:24:07.730Z,32.68
2019-04-20T19:26:32.305Z,33.34
2019-04-20T19:29:12.024Z,33.71
2019-04-20T19:31:45.890Z,33.75
2019-04-20T19:34:19.032Z,34.58
2019-04-20T19:36:38.956Z,34.79
2019-04-20T19:39:19.434Z,34.72
2019-04-20T19:41:40.651Z,32.96
2019-04-20T19:44:14.780Z,34.56
2019-04-20T19:49:18.338Z,35.11
2019-04-20T19:51:55.666Z,34.71
2019-04-20T19:54:24.064Z,34.57
2019-04-20T19:56:48.560Z,35.75
2019-04-20T19:59:15.817Z,35.40
2019-04-20T20:01:33.734Z,35.10
2019-04-20T20:04:06.055Z,34.46
2019-04-20T20:06:39.105Z,35.65
2019-04-20T20:09:09.502Z,35.39
2019-04-20T20:11:39.193Z,35.24
2019-04-20T20:14:08.166Z,36.04
2019-04-20T20:16:56.266Z,36.68
2019-04-20T20:19:12.170Z,33.66
2019-04-20T20:21:54.462Z,36.39
2019-04-20T20:24:06.138Z,36.42
2019-04-20T20:26:40.646Z,36.79
2019-04-20T20:29:17.027Z,37.30
2019-04-20T20:31:54.121Z,37.36
2019-04-20T20:34:17.034Z,37.96
2019-04-20T20:36:43.723Z,38.19
2019-04-20T20:39:18.175Z,38.39
2019-04-20T20:41:53.144Z,38.74
2019-04-20T20:44:25.523Z,38.57
2019-04-20T20:46:52.153Z,39.63
2019-04-20T20:49:28.407Z,39.63
2019-04-20T20:52:02.475Z,39.67
2019-04-20T20:54:26.993Z,40.32
2019-04-20T20:56:52.731Z,40.26
2019-04-20T20:59:20.140Z,40.41
2019-04-20T21:01:50.296Z,40.86
2019-04-20T21:04:11.996Z,40.74
2019-04-20T21:06:40.455Z,40.19
2019-04-20T21:09:10.266Z,41.06
2019-04-20T21:11:38.112Z,41.28
2019-04-20T21:14:06.855Z,37.75
2019-04-20T21:16:42.522Z,41.78
2019-04-20T21:19:21.438Z,42.17
2019-04-20T21:21:47.446Z,42.57
2019-04-20T21:24:19.319Z,42.61
2019-04-20T21:26:47.713Z,42.71
2019-04-20T21:29:21.393Z,42.74
2019-04-20T21:31:57.043Z,42.95
2019-04-20T21:34:19.877Z,42.88
2019-04-20T21:36:47.274Z,43.62
2019-04-20T21:39:27.445Z,43.89
2019-04-20T21:41:50.923Z,44.45
2019-04-20T21:44:21.770Z,40.30
2019-04-20T21:46:51.127Z,44.06
2019-04-20T21:49:32.191Z,46.13
2019-04-20T21:51:54.819Z,46.55
2019-04-20T21:54:16.134Z,41.37
2019-04-20T21:56:53.137Z,46.54
2019-04-20T21:59:24.095Z,45.91
2019-04-20T22:01:55.134Z,45.87
2019-04-20T22:04:14.766Z,41.73
2019-04-20T22:06:44.501Z,46.21
2019-04-20T22:09:14.736Z,47.72
2019-04-20T22:11:44.185Z,46.51
2019-04-20T22:14:18.464Z,47.40
2019-04-20T22:16:49.396Z,47.32
2019-04-20T22:19:27.459Z,47.73
2019-04-20T22:21:53.436Z,47.27
2019-04-20T22:24:30.145Z,47.94
2019-04-20T22:26:54.853Z,47.71
2019-04-20T22:29:14.301Z,47.94
2019-04-20T22:31:45.194Z,48.24
2019-04-20T22:34:17.447Z,48.41
2019-04-20T22:36:46.687Z,48.33
2019-04-20T22:39:18.581Z,44.43
2019-04-20T22:41:53.620Z,49.48
2019-04-20T22:44:21.355Z,49.62
2019-04-20T22:46:50.066Z,49.46
2019-04-20T22:49:36.192Z,49.71
2019-04-20T22:51:58.243Z,49.73
2019-04-20T22:54:37.923Z,50.40
2019-04-20T22:57:02.394Z,50.52
2019-04-20T22:59:23.330Z,49.82
2019-04-20T23:01:55.262Z,50.36
2019-04-20T23:04:21.178Z,50.38
2019-04-20T23:06:51.864Z,49.73
2019-04-20T23:09:20.616Z,50.73
2019-04-20T23:11:49.470Z,50.55
2019-04-20T23:14:18.316Z,51.07
2019-04-20T23:16:50.620Z,51.04
2019-04-20T23:19:29.008Z,51.27
2019-04-20T23:21:55.732Z,51.41
2019-04-20T23:24:18.853Z,51.55
2019-04-20T23:26:49.048Z,51.84
2019-04-20T23:29:21.425Z,52.08
2019-04-20T23:31:55.001Z,52.39
2019-04-20T23:34:21.870Z,52.09
2019-04-20T23:36:50.318Z,52.41
2019-04-20T23:39:18.963Z,47.92
2019-04-20T23:41:52.490Z,52.39
2019-04-20T23:44:19.362Z,52.47
2019-04-20T23:47:10.921Z,53.11
2019-04-20T23:49:54.183Z,52.79
2019-04-20T23:52:32.277Z,53.19
2019-04-20T23:54:38.655Z,52.37
2019-04-20T23:57:06.057Z,53.28
2019-04-20T23:59:41.146Z,53.54
